sensor_id;sensor_type;location;lat;lon;timestamp;pressure;altitude;pressure_sealevel;temperature;humidity
66273;BME280;58450;52.150;4.466;2023-01-01T00:01:59;100625.22;;;14.46;100.00
66273;BME280;58450;52.150;4.466;2023-01-01T00:04:27;100606.69;;;14.43;100.00
66273;BME280;58450;52.150;4.466;2023-01-01T00:06:54;100575.66;;;14.45;100.00
66273;BME280;58450;52.150;4.466;2023-01-01T00:09:22;100597.53;;;14.44;100.00
66273;BME280;58450;52.150;4.466;2023-01-01T00:12:07;100582.94;;;14.45;100.00
66273;BME280;58450;52.150;4.466;2023-01-01T00:14:36;100607.31;;;14.45;100.00
66273;BME280;58450;52.150;4.466;2023-01-01T00:17:07;100585.28;;;14.41;100.00
66273;BME280;58450;52.150;4.466;2023-01-01T00:19:35;100593.22;;;14.36;100.00
66273;BME280;58450;52.150;4.466;2023-01-01T00:22:03;100644.59;;;14.43;100.00
66273;BME280;58450;52.150;4.466;2023-01-01T00:24:30;100601.94;;;14.38;100.00
66273;BME280;58450;52.150;4.466;2023-01-01T00:26:58;100621.69;;;14.45;100.00
66273;BME280;58450;52.150;4.466;2023-01-01T00:29:26;100581.91;;;14.46;100.00
66273;BME280;58450;52.150;4.466;2023-01-01T00:31:54;100577.53;;;14.45;100.00
66273;BME280;58450;52.150;4.466;2023-01-01T00:34:22;100589.41;;;14.44;100.00
66273;BME280;58450;52.150;4.466;2023-01-01T00:36:49;100593.00;;;14.38;100.00
66273;BME280;58450;52.150;4.466;2023-01-01T00:39:17;100594.28;;;14.35;100.00
66273;BME280;58450;52.150;4.466;2023-01-01T00:41:44;100602.13;;;14.43;100.00
66273;BME280;58450;52.150;4.466;2023-01-01T00:44:12;100584.84;;;14.44;100.00
66273;BME280;58450;52.150;4.466;2023-01-01T00:46:39;100625.63;;;14.50;100.00
66273;BME280;58450;52.150;4.466;2023-01-01T00:49:08;100573.34;;;14.49;100.00
66273;BME280;58450;52.150;4.466;2023-01-01T00:51:36;100592.09;;;14.51;100.00
66273;BME280;58450;52.150;4.466;2023-01-01T00:54:03;100567.91;;;14.49;100.00
66273;BME280;58450;52.150;4.466;2023-01-01T00:56:31;100590.59;;;14.55;100.00
66273;BME280;58450;52.150;4.466;2023-01-01T00:59:00;100636.84;;;14.53;100.00
66273;BME280;58450;52.150;4.466;2023-01-01T01:01:27;100615.44;;;14.45;100.00
66273;BME280;58450;52.150;4.466;2023-01-01T01:03:55;100628.41;;;14.36;100.00
66273;BME280;58450;52.150;4.466;2023-01-01T01:06:24;100637.31;;;14.43;100.00
66273;BME280;58450;52.150;4.466;2023-01-01T01:08:52;100623.97;;;14.48;100.00
66273;BME280;58450;52.150;4.466;2023-01-01T01:11:21;100620.84;;;14.45;100.00
66273;BME280;58450;52.150;4.466;2023-01-01T01:13:52;100652.28;;;14.46;100.00
66273;BME280;58450;52.150;4.466;2023-01-01T01:16:24;100656.66;;;14.47;100.00
66273;BME280;58450;52.150;4.466;2023-01-01T01:18:56;100637.84;;;14.27;100.00
66273;BME280;58450;52.150;4.466;2023-01-01T01:21:29;100603.34;;;14.15;100.00
66273;BME280;58450;52.150;4.466;2023-01-01T01:23:58;100631.44;;;14.14;100.00
66273;BME280;58450;52.150;4.466;2023-01-01T01:26:29;100626.28;;;14.06;100.00
66273;BME280;58450;52.150;4.466;2023-01-01T01:28:57;100634.44;;;13.99;100.00
66273;BME280;58450;52.150;4.466;2023-01-01T01:31:27;100608.63;;;13.97;100.00
66273;BME280;58450;52.150;4.466;2023-01-01T01:33:56;100619.44;;;13.97;100.00
66273;BME280;58450;52.150;4.466;2023-01-01T01:36:27;100651.72;;;13.98;100.00
66273;BME280;58450;52.150;4.466;2023-01-01T01:38:56;100626.94;;;14.01;100.00
66273;BME280;58450;52.150;4.466;2023-01-01T01:41:25;100676.22;;;14.10;100.00
66273;BME280;58450;52.150;4.466;2023-01-01T01:43:55;100642.03;;;14.23;100.00
66273;BME280;58450;52.150;4.466;2023-01-01T01:46:29;100641.22;;;14.15;100.00
66273;BME280;58450;52.150;4.466;2023-01-01T01:49:04;100639.56;;;14.14;100.00
66273;BME280;58450;52.150;4.466;2023-01-01T01:51:41;100628.97;;;14.13;100.00
66273;BME280;58450;52.150;4.466;2023-01-01T01:54:11;100649.94;;;14.17;100.00
66273;BME280;58450;52.150;4.466;2023-01-01T01:56:47;100637.25;;;14.18;100.00
66273;BME280;58450;52.150;4.466;2023-01-01T01:59:19;100665.16;;;14.18;100.00
66273;BME280;58450;52.150;4.466;2023-01-01T02:01:51;100627.72;;;14.47;100.00
66273;BME280;58450;52.150;4.466;2023-01-01T02:04:19;100682.91;;;14.46;100.00
66273;BME280;58450;52.150;4.466;2023-01-01T02:06:49;100677.25;;;14.55;100.00
66273;BME280;58450;52.150;4.466;2023-01-01T02:09:20;100666.69;;;14.40;100.00
66273;BME280;58450;52.150;4.466;2023-01-01T02:11:48;100685.63;;;14.46;100.00
66273;BME280;58450;52.150;4.466;2023-01-01T02:14:15;100669.63;;;14.38;100.00
66273;BME280;58450;52.150;4.466;2023-01-01T02:16:46;100672.34;;;14.38;100.00
66273;BME280;58450;52.150;4.466;2023-01-01T02:19:17;100670.69;;;14.30;100.00
66273;BME280;58450;52.150;4.466;2023-01-01T02:22:14;100686.88;;;14.44;100.00
66273;BME280;58450;52.150;4.466;2023-01-01T02:24:58;100691.06;;;14.40;100.00
66273;BME280;58450;52.150;4.466;2023-01-01T02:27:42;100657.16;;;14.37;100.00
66273;BME280;58450;52.150;4.466;2023-01-01T02:30:19;100674.00;;;14.39;100.00
66273;BME280;58450;52.150;4.466;2023-01-01T02:32:50;100682.06;;;14.53;100.00
66273;BME280;58450;52.150;4.466;2023-01-01T02:35:24;100701.44;;;14.50;100.00
66273;BME280;58450;52.150;4.466;2023-01-01T02:38:05;100680.47;;;14.38;100.00
66273;BME280;58450;52.150;4.466;2023-01-01T02:40:41;100696.88;;;14.43;100.00
66273;BME280;58450;52.150;4.466;2023-01-01T02:43:12;100708.22;;;14.20;100.00
66273;BME280;58450;52.150;4.466;2023-01-01T02:45:41;100689.00;;;14.35;100.00
66273;BME280;58450;52.150;4.466;2023-01-01T02:48:34;100704.44;;;14.28;100.00
66273;BME280;58450;52.150;4.466;2023-01-01T02:51:13;100683.63;;;14.28;100.00
66273;BME280;58450;52.150;4.466;2023-01-01T02:53:51;100746.09;;;14.20;100.00
66273;BME280;58450;52.150;4.466;2023-01-01T02:56:35;100712.34;;;14.29;100.00
66273;BME280;58450;52.150;4.466;2023-01-01T02:59:22;100662.19;;;14.27;100.00
66273;BME280;58450;52.150;4.466;2023-01-01T03:02:21;100679.06;;;14.22;100.00
66273;BME280;58450;52.150;4.466;2023-01-01T03:05:05;100709.88;;;14.21;100.00
66273;BME280;58450;52.150;4.466;2023-01-01T03:07:43;100712.38;;;14.23;100.00
66273;BME280;58450;52.150;4.466;2023-01-01T03:10:23;100715.34;;;14.14;100.00
66273;BME280;58450;52.150;4.466;2023-01-01T03:13:02;100731.22;;;13.97;100.00
66273;BME280;58450;52.150;4.466;2023-01-01T03:15:41;100752.28;;;13.82;100.00
66273;BME280;58450;52.150;4.466;2023-01-01T03:18:22;100756.84;;;13.88;100.00
66273;BME280;58450;52.150;4.466;2023-01-01T03:20:56;100744.97;;;13.82;100.00
66273;BME280;58450;52.150;4.466;2023-01-01T03:23:31;100764.75;;;13.83;100.00
66273;BME280;58450;52.150;4.466;2023-01-01T03:26:06;100748.31;;;13.78;100.00
66273;BME280;58450;52.150;4.466;2023-01-01T03:28:43;100746.66;;;13.70;100.00
66273;BME280;58450;52.150;4.466;2023-01-01T03:31:17;100741.69;;;13.60;100.00
66273;BME280;58450;52.150;4.466;2023-01-01T03:33:52;100739.41;;;13.50;100.00
66273;BME280;58450;52.150;4.466;2023-01-01T03:36:29;100737.31;;;13.45;100.00
66273;BME280;58450;52.150;4.466;2023-01-01T03:39:05;100792.63;;;13.50;100.00
66273;BME280;58450;52.150;4.466;2023-01-01T03:41:41;100757.28;;;13.38;100.00
66273;BME280;58450;52.150;4.466;2023-01-01T03:44:17;100795.94;;;13.32;100.00
66273;BME280;58450;52.150;4.466;2023-01-01T03:46:49;100809.22;;;13.26;100.00
66273;BME280;58450;52.150;4.466;2023-01-01T03:49:19;100779.50;;;13.26;100.00
66273;BME280;58450;52.150;4.466;2023-01-01T03:51:59;100786.16;;;13.24;100.00
66273;BME280;58450;52.150;4.466;2023-01-01T03:54:44;100822.72;;;13.06;100.00
66273;BME280;58450;52.150;4.466;2023-01-01T03:57:20;100846.13;;;12.92;100.00
66273;BME280;58450;52.150;4.466;2023-01-01T03:59:57;100813.91;;;12.84;100.00
66273;BME280;58450;52.150;4.466;2023-01-01T04:02:35;100802.88;;;12.72;100.00
66273;BME280;58450;52.150;4.466;2023-01-01T04:05:10;100822.13;;;12.55;100.00
66273;BME280;58450;52.150;4.466;2023-01-01T04:07:38;100850.31;;;12.46;100.00
66273;BME280;58450;52.150;4.466;2023-01-01T04:10:07;100842.41;;;12.45;100.00
66273;BME280;58450;52.150;4.466;2023-01-01T04:12:44;100810.03;;;12.45;100.00
66273;BME280;58450;52.150;4.466;2023-01-01T04:15:14;100833.47;;;12.44;100.00
66273;BME280;58450;52.150;4.466;2023-01-01T04:17:43;100846.72;;;12.39;100.00
66273;BME280;58450;52.150;4.466;2023-01-01T04:20:12;100816.63;;;12.35;100.00
66273;BME280;58450;52.150;4.466;2023-01-01T04:22:40;100843.59;;;12.29;100.00
66273;BME280;58450;52.150;4.466;2023-01-01T04:25:09;100850.19;;;12.26;100.00
66273;BME280;58450;52.150;4.466;2023-01-01T04:27:37;100867.56;;;12.17;100.00
66273;BME280;58450;52.150;4.466;2023-01-01T04:30:08;100872.81;;;12.25;100.00
66273;BME280;58450;52.150;4.466;2023-01-01T04:32:38;100847.25;;;12.21;100.00
66273;BME280;58450;52.150;4.466;2023-01-01T04:35:07;100878.19;;;12.18;100.00
66273;BME280;58450;52.150;4.466;2023-01-01T04:37:40;100882.94;;;12.16;100.00
66273;BME280;58450;52.150;4.466;2023-01-01T04:40:09;100863.69;;;12.26;100.00
66273;BME280;58450;52.150;4.466;2023-01-01T04:42:38;100880.50;;;12.21;100.00
66273;BME280;58450;52.150;4.466;2023-01-01T04:45:07;100866.34;;;12.19;100.00
66273;BME280;58450;52.150;4.466;2023-01-01T04:47:37;100896.03;;;12.19;100.00
66273;BME280;58450;52.150;4.466;2023-01-01T04:50:05;100908.44;;;12.14;100.00
66273;BME280;58450;52.150;4.466;2023-01-01T04:52:33;100894.25;;;12.05;100.00
66273;BME280;58450;52.150;4.466;2023-01-01T04:55:02;100877.06;;;12.06;100.00
66273;BME280;58450;52.150;4.466;2023-01-01T04:57:30;100884.69;;;12.02;100.00
66273;BME280;58450;52.150;4.466;2023-01-01T04:59:58;100867.47;;;12.03;100.00
66273;BME280;58450;52.150;4.466;2023-01-01T05:02:25;100906.25;;;12.02;100.00
66273;BME280;58450;52.150;4.466;2023-01-01T05:04:53;100888.66;;;12.06;100.00
66273;BME280;58450;52.150;4.466;2023-01-01T05:07:21;100898.41;;;12.07;100.00
66273;BME280;58450;52.150;4.466;2023-01-01T05:09:48;100943.50;;;12.14;100.00
66273;BME280;58450;52.150;4.466;2023-01-01T05:12:17;100898.66;;;12.12;100.00
66273;BME280;58450;52.150;4.466;2023-01-01T05:14:45;100900.72;;;12.10;100.00
66273;BME280;58450;52.150;4.466;2023-01-01T05:17:12;100919.22;;;12.14;100.00
66273;BME280;58450;52.150;4.466;2023-01-01T05:19:40;100905.34;;;12.17;100.00
66273;BME280;58450;52.150;4.466;2023-01-01T05:22:07;100888.13;;;12.18;100.00
66273;BME280;58450;52.150;4.466;2023-01-01T05:24:35;100936.28;;;12.21;100.00
66273;BME280;58450;52.150;4.466;2023-01-01T05:27:02;100949.75;;;12.14;100.00
66273;BME280;58450;52.150;4.466;2023-01-01T05:29:31;100963.88;;;12.16;100.00
66273;BME280;58450;52.150;4.466;2023-01-01T05:31:59;100928.56;;;12.11;100.00
66273;BME280;58450;52.150;4.466;2023-01-01T05:34:26;100953.41;;;12.06;100.00
66273;BME280;58450;52.150;4.466;2023-01-01T05:36:54;100927.66;;;12.04;100.00
66273;BME280;58450;52.150;4.466;2023-01-01T05:39:21;100947.38;;;12.04;100.00
66273;BME280;58450;52.150;4.466;2023-01-01T05:41:49;100946.25;;;11.98;100.00
66273;BME280;58450;52.150;4.466;2023-01-01T05:44:16;100950.38;;;11.94;100.00
66273;BME280;58450;52.150;4.466;2023-01-01T05:46:45;100950.53;;;11.93;100.00
66273;BME280;58450;52.150;4.466;2023-01-01T05:49:13;100944.53;;;11.91;100.00
66273;BME280;58450;52.150;4.466;2023-01-01T05:51:41;100983.75;;;11.93;100.00
66273;BME280;58450;52.150;4.466;2023-01-01T05:54:08;100976.75;;;11.99;100.00
66273;BME280;58450;52.150;4.466;2023-01-01T05:56:36;100978.16;;;11.95;100.00
66273;BME280;58450;52.150;4.466;2023-01-01T05:59:04;100972.75;;;11.95;100.00
66273;BME280;58450;52.150;4.466;2023-01-01T06:01:31;100964.69;;;11.95;100.00
66273;BME280;58450;52.150;4.466;2023-01-01T06:04:01;100986.25;;;11.95;100.00
66273;BME280;58450;52.150;4.466;2023-01-01T06:06:30;100989.75;;;11.89;100.00
66273;BME280;58450;52.150;4.466;2023-01-01T06:09:01;100990.31;;;11.84;100.00
66273;BME280;58450;52.150;4.466;2023-01-01T06:11:30;100999.41;;;11.83;100.00
66273;BME280;58450;52.150;4.466;2023-01-01T06:13:59;100987.34;;;11.79;100.00
66273;BME280;58450;52.150;4.466;2023-01-01T06:16:28;101032.75;;;11.75;100.00
66273;BME280;58450;52.150;4.466;2023-01-01T06:18:57;100996.19;;;11.73;100.00
66273;BME280;58450;52.150;4.466;2023-01-01T06:21:27;100983.34;;;11.75;100.00
66273;BME280;58450;52.150;4.466;2023-01-01T06:23:57;101008.22;;;11.70;100.00
66273;BME280;58450;52.150;4.466;2023-01-01T06:26:26;100979.19;;;11.72;100.00
66273;BME280;58450;52.150;4.466;2023-01-01T06:28:56;101027.47;;;11.67;100.00
66273;BME280;58450;52.150;4.466;2023-01-01T06:31:25;101057.50;;;11.64;100.00
66273;BME280;58450;52.150;4.466;2023-01-01T06:33:53;101046.34;;;11.67;100.00
66273;BME280;58450;52.150;4.466;2023-01-01T06:36:22;101014.63;;;11.69;100.00
66273;BME280;58450;52.150;4.466;2023-01-01T06:38:54;101032.66;;;11.68;100.00
66273;BME280;58450;52.150;4.466;2023-01-01T06:41:25;101044.28;;;11.69;100.00
66273;BME280;58450;52.150;4.466;2023-01-01T06:43:53;101013.50;;;11.63;100.00
66273;BME280;58450;52.150;4.466;2023-01-01T06:46:23;101053.50;;;11.60;100.00
66273;BME280;58450;52.150;4.466;2023-01-01T06:48:53;101043.63;;;11.67;100.00
66273;BME280;58450;52.150;4.466;2023-01-01T06:51:24;101052.28;;;11.62;100.00
66273;BME280;58450;52.150;4.466;2023-01-01T06:53:57;101062.88;;;11.64;100.00
66273;BME280;58450;52.150;4.466;2023-01-01T06:56:25;101090.22;;;11.61;100.00
66273;BME280;58450;52.150;4.466;2023-01-01T06:58:53;101059.34;;;11.63;100.00
66273;BME280;58450;52.150;4.466;2023-01-01T07:01:22;101126.28;;;11.60;100.00
66273;BME280;58450;52.150;4.466;2023-01-01T07:03:53;101066.22;;;11.66;100.00
66273;BME280;58450;52.150;4.466;2023-01-01T07:06:23;101129.91;;;11.67;100.00
66273;BME280;58450;52.150;4.466;2023-01-01T07:08:51;101109.81;;;11.70;100.00
66273;BME280;58450;52.150;4.466;2023-01-01T07:11:20;101081.56;;;11.65;100.00
66273;BME280;58450;52.150;4.466;2023-01-01T07:13:48;101106.56;;;11.59;100.00
66273;BME280;58450;52.150;4.466;2023-01-01T07:16:15;101112.97;;;11.58;100.00
66273;BME280;58450;52.150;4.466;2023-01-01T07:18:43;101115.88;;;11.57;100.00
66273;BME280;58450;52.150;4.466;2023-01-01T07:21:25;101107.06;;;11.48;100.00
66273;BME280;58450;52.150;4.466;2023-01-01T07:23:56;101118.22;;;11.45;100.00
66273;BME280;58450;52.150;4.466;2023-01-01T07:26:27;101102.28;;;11.50;100.00
66273;BME280;58450;52.150;4.466;2023-01-01T07:28:56;101147.94;;;11.51;100.00
66273;BME280;58450;52.150;4.466;2023-01-01T07:31:24;101114.75;;;11.51;100.00
66273;BME280;58450;52.150;4.466;2023-01-01T07:33:52;101149.78;;;11.51;100.00
66273;BME280;58450;52.150;4.466;2023-01-01T07:36:19;101136.69;;;11.63;100.00
66273;BME280;58450;52.150;4.466;2023-01-01T07:38:47;101152.22;;;11.61;100.00
66273;BME280;58450;52.150;4.466;2023-01-01T07:41:14;101162.34;;;11.59;100.00
66273;BME280;58450;52.150;4.466;2023-01-01T07:43:43;101165.31;;;11.64;100.00
66273;BME280;58450;52.150;4.466;2023-01-01T07:46:12;101200.75;;;11.61;100.00
66273;BME280;58450;52.150;4.466;2023-01-01T07:48:43;101174.81;;;11.60;100.00
66273;BME280;58450;52.150;4.466;2023-01-01T07:51:11;101172.66;;;11.55;100.00
66273;BME280;58450;52.150;4.466;2023-01-01T07:53:39;101196.72;;;11.57;100.00
66273;BME280;58450;52.150;4.466;2023-01-01T07:56:07;101211.53;;;11.61;100.00
66273;BME280;58450;52.150;4.466;2023-01-01T07:58:38;101222.09;;;11.62;100.00
66273;BME280;58450;52.150;4.466;2023-01-01T08:01:08;101241.75;;;11.71;100.00
66273;BME280;58450;52.150;4.466;2023-01-01T08:03:37;101199.16;;;11.66;100.00
66273;BME280;58450;52.150;4.466;2023-01-01T08:06:06;101214.22;;;11.61;100.00
66273;BME280;58450;52.150;4.466;2023-01-01T08:08:34;101211.03;;;11.57;100.00
66273;BME280;58450;52.150;4.466;2023-01-01T08:11:02;101207.31;;;11.58;100.00
66273;BME280;58450;52.150;4.466;2023-01-01T08:13:30;101208.81;;;11.61;100.00
66273;BME280;58450;52.150;4.466;2023-01-01T08:15:58;101235.59;;;11.62;100.00
66273;BME280;58450;52.150;4.466;2023-01-01T08:18:27;101219.59;;;11.61;100.00
66273;BME280;58450;52.150;4.466;2023-01-01T08:20:54;101206.31;;;11.59;100.00
66273;BME280;58450;52.150;4.466;2023-01-01T08:23:22;101204.25;;;11.61;100.00
66273;BME280;58450;52.150;4.466;2023-01-01T08:25:50;101193.66;;;11.60;100.00
66273;BME280;58450;52.150;4.466;2023-01-01T08:28:17;101192.66;;;11.61;100.00
66273;BME280;58450;52.150;4.466;2023-01-01T08:30:45;101192.72;;;11.67;100.00
66273;BME280;58450;52.150;4.466;2023-01-01T08:33:12;101220.06;;;11.64;100.00
66273;BME280;58450;52.150;4.466;2023-01-01T08:35:41;101209.38;;;11.71;100.00
66273;BME280;58450;52.150;4.466;2023-01-01T08:38:10;101224.44;;;11.65;100.00
66273;BME280;58450;52.150;4.466;2023-01-01T08:40:38;101260.97;;;11.68;100.00
66273;BME280;58450;52.150;4.466;2023-01-01T08:43:06;101237.09;;;11.65;100.00
66273;BME280;58450;52.150;4.466;2023-01-01T08:45:33;101244.31;;;11.64;100.00
66273;BME280;58450;52.150;4.466;2023-01-01T08:48:01;101253.84;;;11.75;100.00
66273;BME280;58450;52.150;4.466;2023-01-01T08:50:28;101246.13;;;11.72;100.00
66273;BME280;58450;52.150;4.466;2023-01-01T08:52:57;101248.44;;;11.75;100.00
66273;BME280;58450;52.150;4.466;2023-01-01T08:55:25;101251.66;;;11.71;100.00
66273;BME280;58450;52.150;4.466;2023-01-01T08:57:52;101280.31;;;11.72;100.00
66273;BME280;58450;52.150;4.466;2023-01-01T09:00:20;101275.13;;;11.70;100.00
66273;BME280;58450;52.150;4.466;2023-01-01T09:02:48;101262.28;;;11.72;100.00
66273;BME280;58450;52.150;4.466;2023-01-01T09:05:15;101242.03;;;11.76;100.00
66273;BME280;58450;52.150;4.466;2023-01-01T09:07:43;101261.56;;;11.78;100.00
66273;BME280;58450;52.150;4.466;2023-01-01T09:10:12;101254.78;;;11.82;100.00
66273;BME280;58450;52.150;4.466;2023-01-01T09:12:39;101230.78;;;11.88;100.00
66273;BME280;58450;52.150;4.466;2023-01-01T09:15:13;101260.25;;;11.89;100.00
66273;BME280;58450;52.150;4.466;2023-01-01T09:17:42;101250.97;;;11.92;100.00
66273;BME280;58450;52.150;4.466;2023-01-01T09:20:10;101269.00;;;11.91;100.00
66273;BME280;58450;52.150;4.466;2023-01-01T09:22:38;101268.72;;;12.01;100.00
66273;BME280;58450;52.150;4.466;2023-01-01T09:25:05;101259.94;;;11.99;100.00
66273;BME280;58450;52.150;4.466;2023-01-01T09:27:35;101263.81;;;12.05;100.00
66273;BME280;58450;52.150;4.466;2023-01-01T09:30:03;101259.78;;;12.16;100.00
66273;BME280;58450;52.150;4.466;2023-01-01T09:32:31;101278.69;;;12.16;100.00
66273;BME280;58450;52.150;4.466;2023-01-01T09:34:58;101244.16;;;12.26;100.00
66273;BME280;58450;52.150;4.466;2023-01-01T09:37:26;101275.63;;;12.19;100.00
66273;BME280;58450;52.150;4.466;2023-01-01T09:39:54;101272.09;;;12.18;100.00
66273;BME280;58450;52.150;4.466;2023-01-01T09:42:28;101271.44;;;12.16;100.00
66273;BME280;58450;52.150;4.466;2023-01-01T09:45:13;101287.34;;;12.26;100.00
66273;BME280;58450;52.150;4.466;2023-01-01T09:47:49;101262.13;;;12.19;100.00
66273;BME280;58450;52.150;4.466;2023-01-01T09:50:21;101286.88;;;12.07;100.00
66273;BME280;58450;52.150;4.466;2023-01-01T09:52:54;101301.22;;;12.08;100.00
66273;BME280;58450;52.150;4.466;2023-01-01T09:55:27;101306.59;;;12.08;100.00
66273;BME280;58450;52.150;4.466;2023-01-01T09:57:56;101316.91;;;12.04;100.00
66273;BME280;58450;52.150;4.466;2023-01-01T10:00:27;101316.09;;;12.19;100.00
66273;BME280;58450;52.150;4.466;2023-01-01T10:03:12;101321.69;;;12.17;100.00
66273;BME280;58450;52.150;4.466;2023-01-01T10:05:53;101327.66;;;12.27;100.00
66273;BME280;58450;52.150;4.466;2023-01-01T10:08:41;101315.25;;;12.18;100.00
66273;BME280;58450;52.150;4.466;2023-01-01T10:11:23;101295.44;;;12.26;100.00
66273;BME280;58450;52.150;4.466;2023-01-01T10:13:59;101293.09;;;12.23;100.00
66273;BME280;58450;52.150;4.466;2023-01-01T10:16:36;101302.19;;;12.37;100.00
66273;BME280;58450;52.150;4.466;2023-01-01T10:19:21;101304.16;;;12.43;100.00
66273;BME280;58450;52.150;4.466;2023-01-01T10:21:58;101290.59;;;12.36;100.00
66273;BME280;58450;52.150;4.466;2023-01-01T10:24:40;101292.19;;;12.31;100.00
66273;BME280;58450;52.150;4.466;2023-01-01T10:27:22;101277.47;;;12.33;100.00
66273;BME280;58450;52.150;4.466;2023-01-01T10:29:55;101292.72;;;12.41;100.00
66273;BME280;58450;52.150;4.466;2023-01-01T10:32:27;101280.13;;;12.63;100.00
66273;BME280;58450;52.150;4.466;2023-01-01T10:34:57;101287.22;;;13.08;100.00
66273;BME280;58450;52.150;4.466;2023-01-01T10:37:27;101293.94;;;13.40;100.00
66273;BME280;58450;52.150;4.466;2023-01-01T10:40:02;101321.91;;;13.48;100.00
66273;BME280;58450;52.150;4.466;2023-01-01T10:42:39;101327.91;;;13.65;100.00
66273;BME280;58450;52.150;4.466;2023-01-01T10:45:11;101306.78;;;13.53;100.00
66273;BME280;58450;52.150;4.466;2023-01-01T10:48:13;101333.88;;;13.17;100.00
66273;BME280;58450;52.150;4.466;2023-01-01T10:50:45;101343.00;;;12.94;100.00
66273;BME280;58450;52.150;4.466;2023-01-01T10:53:20;101325.09;;;12.93;100.00
66273;BME280;58450;52.150;4.466;2023-01-01T10:56:14;101326.03;;;12.85;100.00
66273;BME280;58450;52.150;4.466;2023-01-01T10:58:45;101332.59;;;12.76;100.00
66273;BME280;58450;52.150;4.466;2023-01-01T11:01:19;101331.59;;;12.77;100.00
66273;BME280;58450;52.150;4.466;2023-01-01T11:03:55;101369.09;;;12.86;100.00
66273;BME280;58450;52.150;4.466;2023-01-01T11:06:27;101334.53;;;12.82;100.00
66273;BME280;58450;52.150;4.466;2023-01-01T11:09:00;101351.59;;;12.82;100.00
66273;BME280;58450;52.150;4.466;2023-01-01T11:11:36;101351.81;;;13.03;100.00
66273;BME280;58450;52.150;4.466;2023-01-01T11:14:18;101358.72;;;12.90;100.00
66273;BME280;58450;52.150;4.466;2023-01-01T11:16:48;101367.19;;;12.87;100.00
66273;BME280;58450;52.150;4.466;2023-01-01T11:19:21;101361.53;;;12.82;100.00
66273;BME280;58450;52.150;4.466;2023-01-01T11:21:53;101355.69;;;12.78;100.00
66273;BME280;58450;52.150;4.466;2023-01-01T11:24:23;101353.56;;;12.59;100.00
66273;BME280;58450;52.150;4.466;2023-01-01T11:26:53;101338.50;;;12.64;100.00
66273;BME280;58450;52.150;4.466;2023-01-01T11:29:37;101381.59;;;12.57;100.00
66273;BME280;58450;52.150;4.466;2023-01-01T11:32:06;101376.13;;;12.51;100.00
66273;BME280;58450;52.150;4.466;2023-01-01T11:34:37;101352.84;;;12.50;100.00
66273;BME280;58450;52.150;4.466;2023-01-01T11:37:16;101343.63;;;12.44;100.00
66273;BME280;58450;52.150;4.466;2023-01-01T11:39:52;101346.78;;;12.48;100.00
66273;BME280;58450;52.150;4.466;2023-01-01T11:42:25;101365.75;;;12.54;100.00
66273;BME280;58450;52.150;4.466;2023-01-01T11:44:56;101400.13;;;12.46;100.00
66273;BME280;58450;52.150;4.466;2023-01-01T11:47:29;101373.88;;;12.39;100.00
66273;BME280;58450;52.150;4.466;2023-01-01T11:50:12;101368.47;;;12.39;100.00
66273;BME280;58450;52.150;4.466;2023-01-01T11:52:49;101367.72;;;12.16;100.00
66273;BME280;58450;52.150;4.466;2023-01-01T11:55:22;101370.44;;;12.46;100.00
66273;BME280;58450;52.150;4.466;2023-01-01T11:58:00;101382.91;;;12.47;100.00
66273;BME280;58450;52.150;4.466;2023-01-01T12:00:34;101384.31;;;12.43;100.00
66273;BME280;58450;52.150;4.466;2023-01-01T12:03:11;101404.59;;;12.38;100.00
66273;BME280;58450;52.150;4.466;2023-01-01T12:05:49;101391.75;;;12.40;100.00
66273;BME280;58450;52.150;4.466;2023-01-01T12:08:30;101370.97;;;12.41;100.00
66273;BME280;58450;52.150;4.466;2023-01-01T12:11:06;101386.44;;;12.32;100.00
66273;BME280;58450;52.150;4.466;2023-01-01T12:13:44;101383.00;;;12.23;100.00
66273;BME280;58450;52.150;4.466;2023-01-01T12:16:21;101366.34;;;12.35;100.00
66273;BME280;58450;52.150;4.466;2023-01-01T12:19:01;101372.94;;;12.32;100.00
66273;BME280;58450;52.150;4.466;2023-01-01T12:21:40;101356.31;;;12.29;100.00
66273;BME280;58450;52.150;4.466;2023-01-01T12:24:12;101396.59;;;12.30;100.00
66273;BME280;58450;52.150;4.466;2023-01-01T12:26:54;101362.91;;;12.26;100.00
66273;BME280;58450;52.150;4.466;2023-01-01T12:29:42;101356.97;;;12.31;100.00
66273;BME280;58450;52.150;4.466;2023-01-01T12:32:28;101346.31;;;12.29;100.00
66273;BME280;58450;52.150;4.466;2023-01-01T12:35:15;101341.13;;;12.27;100.00
66273;BME280;58450;52.150;4.466;2023-01-01T12:38:03;101365.22;;;12.29;100.00
66273;BME280;58450;52.150;4.466;2023-01-01T12:40:52;101397.88;;;12.34;100.00
66273;BME280;58450;52.150;4.466;2023-01-01T12:43:33;101348.94;;;12.37;100.00
66273;BME280;58450;52.150;4.466;2023-01-01T12:46:27;101370.53;;;12.37;100.00
66273;BME280;58450;52.150;4.466;2023-01-01T12:49:22;101362.91;;;12.26;100.00
66273;BME280;58450;52.150;4.466;2023-01-01T12:52:10;101347.06;;;12.23;100.00
66273;BME280;58450;52.150;4.466;2023-01-01T12:58:15;101382.06;;;12.16;100.00
66273;BME280;58450;52.150;4.466;2023-01-01T13:00:52;101361.31;;;12.17;100.00
66273;BME280;58450;52.150;4.466;2023-01-01T13:03:26;101357.50;;;12.11;100.00
66273;BME280;58450;52.150;4.466;2023-01-01T13:05:59;101364.09;;;12.08;100.00
66273;BME280;58450;52.150;4.466;2023-01-01T13:08:28;101374.13;;;12.15;100.00
66273;BME280;58450;52.150;4.466;2023-01-01T13:11:00;101368.66;;;12.08;100.00